createdAt,value
2015-05-17T00:00:00.584Z,96469
2015-05-17T00:00:19.570Z,96461
2015-05-17T00:00:37.976Z,96458
2015-05-17T00:00:56.742Z,96467
2015-05-17T00:01:15.182Z,96469
2015-05-17T00:01:33.776Z,96467
2015-05-17T00:01:52.245Z,96472
2015-05-17T00:02:10.932Z,96461
2015-05-17T00:02:29.764Z,96470
2015-05-17T00:02:48.248Z,96455
2015-05-17T00:03:06.857Z,96458
2015-05-17T00:03:25.484Z,96458
2015-05-17T00:03:44.187Z,96461
2015-05-17T00:04:02.719Z,96461
2015-05-17T00:04:21.472Z,96461
2015-05-17T00:04:40.190Z,96467
2015-05-17T00:04:58.581Z,96458
2015-05-17T00:05:17.128Z,96464
2015-05-17T00:05:35.896Z,96452
2015-05-17T00:05:53.677Z,96458
2015-05-17T00:06:12.224Z,96458
2015-05-17T00:06:30.646Z,96461
2015-05-17T00:06:49.383Z,96458
2015-05-17T00:07:07.774Z,96461
2015-05-17T00:07:26.164Z,96461
2015-05-17T00:07:44.573Z,96464
2015-05-17T00:08:03.042Z,96461
2015-05-17T00:08:21.495Z,96467
2015-05-17T00:08:39.933Z,96455
2015-05-17T00:08:58.763Z,96461
2015-05-17T00:09:17.404Z,96458
2015-05-17T00:09:35.810Z,96464
2015-05-17T00:09:54.421Z,96464
2015-05-17T00:10:12.859Z,96458
2015-05-17T00:10:31.249Z,96467
2015-05-17T00:10:49.890Z,96461
2015-05-17T00:11:08.299Z,96461
2015-05-17T00:11:26.752Z,96458
2015-05-17T00:11:45.362Z,96458
2015-05-17T00:12:03.755Z,96461
2015-05-17T00:12:22.224Z,96467
2015-05-17T00:12:40.693Z,96461
2015-05-17T00:12:59.146Z,96452
2015-05-17T00:13:17.726Z,96458
2015-05-17T00:13:36.164Z,96464
2015-05-17T00:13:54.617Z,96464
2015-05-17T00:14:13.260Z,96455
2015-05-17T00:14:31.760Z,96455
2015-05-17T00:14:50.276Z,96455
2015-05-17T00:15:08.635Z,96453
2015-05-17T00:15:27.278Z,96461
2015-05-17T00:15:45.809Z,96461
2015-05-17T00:16:04.200Z,96453
2015-05-17T00:16:22.577Z,96456
2015-05-17T00:16:41.061Z,96464
2015-05-17T00:16:59.467Z,96455
2015-05-17T00:17:17.936Z,96453
2015-05-17T00:17:36.564Z,96458
2015-05-17T00:17:55.002Z,96455
2015-05-17T00:18:13.627Z,96450
2015-05-17T00:18:32.113Z,96455
2015-05-17T00:18:50.551Z,96458
2015-05-17T00:19:09.144Z,96455
2015-05-17T00:19:27.613Z,96458
2015-05-17T00:19:46.132Z,96461
2015-05-17T00:20:04.897Z,96455
2015-05-17T00:20:23.382Z,96458
2015-05-17T00:20:41.852Z,96450
2015-05-17T00:21:00.306Z,96450
2015-05-17T00:21:18.774Z,96456
2015-05-17T00:21:37.196Z,96453
2015-05-17T00:21:55.745Z,96450
2015-05-17T00:22:14.167Z,96450
2015-05-17T00:22:32.558Z,96450
2015-05-17T00:22:50.982Z,96456
2015-05-17T00:23:09.357Z,96450
2015-05-17T00:23:27.795Z,96450
2015-05-17T00:23:46.295Z,96447
2015-05-17T00:24:04.767Z,96444
2015-05-17T00:24:23.204Z,96444
2015-05-17T00:24:41.673Z,96447
2015-05-17T00:25:00.129Z,96438
2015-05-17T00:25:18.645Z,96450
2015-05-17T00:25:37.035Z,96444
2015-05-17T00:25:55.551Z,96444
2015-05-17T00:26:13.958Z,96450
2015-05-17T00:26:32.349Z,96444
2015-05-17T00:26:50.943Z,96450
2015-05-17T00:27:09.446Z,96447
2015-05-17T00:27:27.946Z,96441
2015-05-17T00:27:46.477Z,96441
2015-05-17T00:28:04.914Z,96444
2015-05-17T00:28:23.324Z,96453
2015-05-17T00:28:41.777Z,96450
2015-05-17T00:29:00.214Z,96447
2015-05-17T00:29:18.888Z,96456
2015-05-17T00:29:37.466Z,96447
2015-05-17T00:29:56.029Z,96441
2015-05-17T00:30:14.860Z,96447
2015-05-17T00:30:33.360Z,96450
2015-05-17T00:30:51.875Z,96450
2015-05-17T00:31:10.360Z,96456
2015-05-17T00:31:29.002Z,96450
2015-05-17T00:31:47.440Z,96447
2015-05-17T00:32:05.877Z,96447
2015-05-17T00:32:24.299Z,96450
2015-05-17T00:32:42.723Z,96453
2015-05-17T00:33:01.192Z,96453
2015-05-17T00:33:19.614Z,96453
2015-05-17T00:33:38.007Z,96453
2015-05-17T00:33:56.632Z,96453
2015-05-17T00:34:15.117Z,96445
2015-05-17T00:34:33.601Z,96459
2015-05-17T00:34:52.151Z,96456
2015-05-17T00:35:10.667Z,96450
2015-05-17T00:35:29.323Z,96456
2015-05-17T00:35:47.950Z,96450
2015-05-17T00:36:06.372Z,96459
2015-05-17T00:36:24.887Z,96450
2015-05-17T00:36:43.450Z,96456
2015-05-17T00:37:02.015Z,96450
2015-05-17T00:37:20.547Z,96450
2015-05-17T00:37:39.015Z,96453
2015-05-17T00:37:57.596Z,96459
2015-05-17T00:38:15.986Z,96447
2015-05-17T00:38:34.580Z,96456
2015-05-17T00:38:52.986Z,96450
2015-05-17T00:39:11.691Z,96456
2015-05-17T00:39:30.176Z,96453
2015-05-17T00:39:48.566Z,96456
2015-05-17T00:40:07.116Z,96453
2015-05-17T00:40:25.851Z,96459
2015-05-17T00:40:44.460Z,96467
2015-05-17T00:41:02.993Z,96447
2015-05-17T00:41:21.524Z,96450
2015-05-17T00:41:39.946Z,96448
2015-05-17T00:41:58.696Z,96448
2015-05-17T00:42:17.371Z,96453
2015-05-17T00:42:35.824Z,96448
2015-05-17T00:42:54.340Z,96451
2015-05-17T00:43:12.840Z,96453
2015-05-17T00:43:31.529Z,96445
2015-05-17T00:43:50.092Z,96453
2015-05-17T00:44:08.498Z,96445
2015-05-17T00:44:26.907Z,96453
2015-05-17T00:44:45.407Z,96456
2015-05-17T00:45:03.798Z,96447
2015-05-17T00:45:22.189Z,96447
2015-05-17T00:45:39.941Z,96448
2015-05-17T00:45:58.378Z,96448
2015-05-17T00:46:16.831Z,96447
2015-05-17T00:46:35.287Z,96448
2015-05-17T00:46:53.678Z,96448
2015-05-17T00:47:12.084Z,96436
2015-05-17T00:47:30.616Z,96453
2015-05-17T00:47:49.039Z,96448
2015-05-17T00:48:07.493Z,96451
2015-05-17T00:48:25.977Z,96456
2015-05-17T00:48:44.371Z,96459
2015-05-17T00:49:02.777Z,96442
2015-05-17T00:49:21.308Z,96456
2015-05-17T00:49:39.714Z,96448
2015-05-17T00:49:58.263Z,96453
2015-05-17T00:50:16.669Z,96448
2015-05-17T00:50:35.060Z,96453
2015-05-17T00:50:53.485Z,96448
2015-05-17T00:51:11.891Z,96448
2015-05-17T00:51:30.360Z,96448
2015-05-17T00:51:48.969Z,96445
2015-05-17T00:52:07.518Z,96454
2015-05-17T00:52:26.190Z,96451
2015-05-17T00:52:44.596Z,96457
2015-05-17T00:53:02.990Z,96454
2015-05-17T00:53:21.490Z,96454
2015-05-17T00:53:39.943Z,96457
2015-05-17T00:53:58.334Z,96445
2015-05-17T00:54:16.820Z,96454
2015-05-17T00:54:35.211Z,96451
2015-05-17T00:54:53.633Z,96448
2015-05-17T00:55:12.026Z,96457
2015-05-17T00:55:30.636Z,96457
2015-05-17T00:55:49.026Z,96454
2015-05-17T00:56:07.417Z,96451
2015-05-17T00:56:25.934Z,96454
2015-05-17T00:56:44.356Z,96448
2015-05-17T00:57:02.747Z,96454
2015-05-17T00:57:21.141Z,96457
2015-05-17T00:57:39.578Z,96457
2015-05-17T00:57:58.031Z,96445
2015-05-17T00:58:16.500Z,96454
2015-05-17T00:58:35.033Z,96451
2015-05-17T00:58:53.658Z,96451
2015-05-17T00:59:12.049Z,96454
2015-05-17T00:59:30.551Z,96460
2015-05-17T00:59:49.035Z,96457
2015-05-17T01:00:07.441Z,96451
2015-05-17T01:00:25.863Z,96451
2015-05-17T01:00:44.257Z,96463
2015-05-17T01:01:02.773Z,96460
2015-05-17T01:01:21.366Z,96457
2015-05-17T01:01:39.916Z,96463
2015-05-17T01:01:58.572Z,96451
2015-05-17T01:02:17.119Z,96449
2015-05-17T01:02:35.808Z,96460
2015-05-17T01:02:54.198Z,96449
2015-05-17T01:03:12.589Z,96452
2015-05-17T01:03:31.042Z,96455
2015-05-17T01:03:49.718Z,96452
2015-05-17T01:04:08.249Z,96449
2015-05-17T01:04:26.859Z,96455
2015-05-17T01:04:45.673Z,96466
2015-05-17T01:05:04.158Z,96452
2015-05-17T01:05:22.829Z,96452
2015-05-17T01:05:41.298Z,96460
2015-05-17T01:05:59.691Z,96460
2015-05-17T01:06:18.081Z,96460
2015-05-17T01:06:36.628Z,96460
2015-05-17T01:06:55.081Z,96457
2015-05-17T01:07:13.788Z,96463
2015-05-17T01:07:32.194Z,96452
2015-05-17T01:07:50.803Z,96463
2015-05-17T01:08:09.211Z,96454
2015-05-17T01:08:27.758Z,96466
2015-05-17T01:08:46.196Z,96466
2015-05-17T01:09:04.602Z,96460
2015-05-17T01:09:23.277Z,96469
2015-05-17T01:09:41.699Z,96460
2015-05-17T01:10:00.433Z,96466
2015-05-17T01:10:18.186Z,96460
2015-05-17T01:10:36.671Z,96463
2015-05-17T01:10:55.061Z,96469
2015-05-17T01:11:13.655Z,96466
2015-05-17T01:11:32.188Z,96474
2015-05-17T01:11:50.610Z,96469
2015-05-17T01:12:09.204Z,96469
2015-05-17T01:12:27.660Z,96469
2015-05-17T01:12:46.254Z,96469
2015-05-17T01:13:04.707Z,96472
2015-05-17T01:13:23.097Z,96463
2015-05-17T01:13:41.598Z,96460
2015-05-17T01:14:00.192Z,96460
2015-05-17T01:14:18.817Z,96469
2015-05-17T01:14:37.336Z,96466
2015-05-17T01:14:55.898Z,96469
2015-05-17T01:15:14.430Z,96466
2015-05-17T01:15:33.008Z,96463
2015-05-17T01:15:51.526Z,96463
2015-05-17T01:16:09.933Z,96460
2015-05-17T01:16:28.745Z,96466
2015-05-17T01:16:47.420Z,96463
2015-05-17T01:17:06.045Z,96469
2015-05-17T01:17:24.467Z,96460
2015-05-17T01:17:43.045Z,96466
2015-05-17T01:18:01.703Z,96466
2015-05-17T01:18:19.453Z,96463
2015-05-17T01:18:37.875Z,96466
2015-05-17T01:18:56.330Z,96460
2015-05-17T01:19:14.736Z,96460
2015-05-17T01:19:33.158Z,96460
2015-05-17T01:19:51.690Z,96454
2015-05-17T01:20:10.318Z,96460
2015-05-17T01:20:28.864Z,96466
2015-05-17T01:20:47.271Z,96460
2015-05-17T01:21:05.757Z,96469
2015-05-17T01:21:24.195Z,96460
2015-05-17T01:21:42.616Z,96457
2015-05-17T01:22:01.148Z,96454
2015-05-17T01:22:19.619Z,96460
2015-05-17T01:22:38.057Z,96457
2015-05-17T01:22:56.510Z,96457
2015-05-17T01:23:15.231Z,96466
2015-05-17T01:23:33.778Z,96460
2015-05-17T01:23:52.387Z,96460
2015-05-17T01:24:10.843Z,96460
2015-05-17T01:24:28.578Z,96458
2015-05-17T01:24:47.046Z,96466
2015-05-17T01:25:05.499Z,96455
2015-05-17T01:25:23.892Z,96460
2015-05-17T01:25:42.439Z,96458
2015-05-17T01:26:00.955Z,96460
2015-05-17T01:26:19.533Z,96458
2015-05-17T01:26:37.988Z,96455
2015-05-17T01:26:56.378Z,96452
2015-05-17T01:27:14.769Z,96458
2015-05-17T01:27:33.163Z,96455
2015-05-17T01:27:51.631Z,96452
2015-05-17T01:28:10.272Z,96458
2015-05-17T01:28:28.678Z,96452
2015-05-17T01:28:47.181Z,96455
2015-05-17T01:29:05.759Z,96446
2015-05-17T01:29:24.431Z,96455
2015-05-17T01:29:42.965Z,96455
2015-05-17T01:30:01.355Z,96446
2015-05-17T01:30:19.761Z,96449
2015-05-17T01:30:37.496Z,96458
2015-05-17T01:30:55.967Z,96449
2015-05-17T01:31:14.420Z,96446
2015-05-17T01:31:33.123Z,96452
2015-05-17T01:31:51.767Z,96452
2015-05-17T01:32:10.174Z,96446
2015-05-17T01:32:28.846Z,96446
2015-05-17T01:32:47.392Z,96438
2015-05-17T01:33:05.878Z,96444
2015-05-17T01:33:24.284Z,96435
2015-05-17T01:33:42.784Z,96446
2015-05-17T01:34:01.193Z,96446
2015-05-17T01:34:19.787Z,96449
2015-05-17T01:34:38.740Z,96438
2015-05-17T01:34:57.149Z,96432
2015-05-17T01:35:15.712Z,96446
2015-05-17T01:35:34.134Z,96446
2015-05-17T01:35:52.540Z,96441
2015-05-17T01:36:11.058Z,96438
2015-05-17T01:36:29.542Z,96441
2015-05-17T01:36:48.011Z,96441
2015-05-17T01:37:06.511Z,96435
2015-05-17T01:37:24.920Z,96438
2015-05-17T01:37:43.404Z,96435
2015-05-17T01:38:01.998Z,96441
2015-05-17T01:38:20.469Z,96438
2015-05-17T01:38:38.860Z,96438
2015-05-17T01:38:57.391Z,96430
2015-05-17T01:39:15.797Z,96433
2015-05-17T01:39:34.284Z,96436
2015-05-17T01:39:52.956Z,96444
2015-05-17T01:40:11.034Z,96436
2015-05-17T01:40:29.443Z,96436
2015-05-17T01:40:47.974Z,96436
2015-05-17T01:41:06.365Z,96438
2015-05-17T01:41:24.943Z,96430
2015-05-17T01:41:43.368Z,96424
2015-05-17T01:42:01.993Z,96433
2015-05-17T01:42:20.618Z,96436
2015-05-17T01:42:38.995Z,96430
2015-05-17T01:42:57.557Z,96438
2015-05-17T01:43:16.245Z,96435
2015-05-17T01:43:34.873Z,96433
2015-05-17T01:43:53.263Z,96433
2015-05-17T01:44:12.060Z,96435
2015-05-17T01:44:30.576Z,96427
2015-05-17T01:44:49.078Z,96427
2015-05-17T01:45:07.703Z,96441
2015-05-17T01:45:26.203Z,96427
2015-05-17T01:45:44.671Z,96424
2015-05-17T01:46:03.236Z,96433
2015-05-17T01:46:21.627Z,96435
2015-05-17T01:46:40.330Z,96430
2015-05-17T01:46:58.770Z,96430
2015-05-17T01:47:17.333Z,96435
2015-05-17T01:47:35.895Z,96433
2015-05-17T01:47:54.473Z,96427
2015-05-17T01:48:12.882Z,96430
2015-05-17T01:48:31.538Z,96427
2015-05-17T01:48:49.928Z,96432
2015-05-17T01:49:08.541Z,96438
2015-05-17T01:49:27.213Z,96432
2015-05-17T01:49:45.603Z,96432
2015-05-17T01:50:04.197Z,96427
2015-05-17T01:50:22.622Z,96432
2015-05-17T01:50:40.997Z,96424
2015-05-17T01:50:59.528Z,96430
2015-05-17T01:51:17.921Z,96438
2015-05-17T01:51:36.311Z,96424
2015-05-17T01:51:54.874Z,96433
2015-05-17T01:52:13.452Z,96421
2015-05-17T01:52:32.032Z,96424
2015-05-17T01:52:50.688Z,96432
2015-05-17T01:53:09.173Z,96432
2015-05-17T01:53:27.770Z,96432
2015-05-17T01:53:45.535Z,96421
2015-05-17T01:54:03.973Z,96435
2015-05-17T01:54:22.363Z,96430
2015-05-17T01:54:40.912Z,96424
2015-05-17T01:54:59.506Z,96424
2015-05-17T01:55:18.053Z,96427
2015-05-17T01:55:36.634Z,96424
2015-05-17T01:55:55.025Z,96427
2015-05-17T01:56:13.415Z,96430
2015-05-17T01:56:31.931Z,96433
2015-05-17T01:56:50.323Z,96436
2015-05-17T01:57:08.808Z,96427
2015-05-17T01:57:27.198Z,96430
2015-05-17T01:57:45.686Z,96424
2015-05-17T01:58:04.389Z,96436
2015-05-17T01:58:22.655Z,96436
2015-05-17T01:58:41.045Z,96424
2015-05-17T01:58:59.939Z,96427
2015-05-17T01:59:18.361Z,96430
2015-05-17T01:59:36.923Z,96430
2015-05-17T01:59:55.769Z,96433
2015-05-17T02:00:14.347Z,96433
2015-05-17T02:00:32.738Z,96433
2015-05-17T02:00:51.255Z,96433
2015-05-17T02:01:10.099Z,96433
2015-05-17T02:01:28.599Z,96439
2015-05-17T02:01:46.990Z,96431
2015-05-17T02:02:05.696Z,96445
2015-05-17T02:02:24.102Z,96434
2015-05-17T02:02:42.540Z,96437
2015-05-17T02:03:01.071Z,96434
2015-05-17T02:03:19.496Z,96437
2015-05-17T02:03:38.011Z,96439
2015-05-17T02:03:56.402Z,96442
2015-05-17T02:04:14.795Z,96436
2015-05-17T02:04:33.185Z,96436
2015-05-17T02:04:51.716Z,96439
2015-05-17T02:05:10.091Z,96433
2015-05-17T02:05:28.500Z,96439
2015-05-17T02:05:46.890Z,96433
2015-05-17T02:06:05.328Z,96428
2015-05-17T02:06:24.003Z,96433
2015-05-17T02:06:42.456Z,96422
2015-05-17T02:07:01.034Z,96433
2015-05-17T02:07:19.425Z,96433
2015-05-17T02:07:37.864Z,96436
2015-05-17T02:07:55.833Z,96450
2015-05-17T02:08:14.364Z,96428
2015-05-17T02:08:32.226Z,96433
2015-05-17T02:08:50.883Z,96433
2015-05-17T02:09:09.320Z,96436
2015-05-17T02:09:27.742Z,96428
2015-05-17T02:09:46.197Z,96436
2015-05-17T02:10:03.947Z,96428
2015-05-17T02:10:22.291Z,96430
2015-05-17T02:10:40.685Z,96442
2015-05-17T02:10:59.075Z,96431
2015-05-17T02:11:17.481Z,96436
2015-05-17T02:11:35.966Z,96431
2015-05-17T02:11:54.499Z,96442
2015-05-17T02:12:12.937Z,96436
2015-05-17T02:12:31.655Z,96442
2015-05-17T02:12:50.299Z,96431
2015-05-17T02:13:08.736Z,96442
2015-05-17T02:13:27.440Z,96442
2015-05-17T02:13:46.067Z,96439
2015-05-17T02:14:07.738Z,96445
2015-05-17T02:14:26.410Z,96436
2015-05-17T02:14:44.973Z,96445
2015-05-17T02:15:03.912Z,96436
2015-05-17T02:15:22.428Z,96448
2015-05-17T02:15:40.897Z,96442
2015-05-17T02:15:59.540Z,96439
2015-05-17T02:16:18.056Z,96442
2015-05-17T02:16:36.462Z,96451
2015-05-17T02:16:55.025Z,96445
2015-05-17T02:17:13.620Z,96437
2015-05-17T02:17:32.105Z,96448
2015-05-17T02:17:50.605Z,96437
2015-05-17T02:18:09.014Z,96437
2015-05-17T02:18:27.420Z,96437
2015-05-17T02:18:46.014Z,96437
2015-05-17T02:19:04.561Z,96437
2015-05-17T02:19:23.375Z,96448
2015-05-17T02:19:42.219Z,96440
2015-05-17T02:20:00.688Z,96437
2015-05-17T02:20:19.160Z,96442
2015-05-17T02:20:37.613Z,96439
2015-05-17T02:20:56.128Z,96437
2015-05-17T02:21:14.722Z,96445
2015-05-17T02:21:33.271Z,96448
2015-05-17T02:21:51.818Z,96445
2015-05-17T02:22:10.490Z,96442
2015-05-17T02:22:29.008Z,96442
2015-05-17T02:22:47.712Z,96442
2015-05-17T02:23:05.774Z,96436
2015-05-17T02:23:24.243Z,96445
2015-05-17T02:23:42.760Z,96448
2015-05-17T02:24:01.604Z,96445
2015-05-17T02:24:20.198Z,96439
2015-05-17T02:24:38.951Z,96445
2015-05-17T02:24:57.513Z,96439
2015-05-17T02:25:15.998Z,96436
2015-05-17T02:25:34.734Z,96448
2015-05-17T02:25:53.156Z,96430
2015-05-17T02:26:11.578Z,96439
2015-05-17T02:26:30.281Z,96439
2015-05-17T02:26:48.783Z,96439
2015-05-17T02:27:07.361Z,96442
2015-05-17T02:27:26.064Z,96439
2015-05-17T02:27:44.661Z,96433
2015-05-17T02:28:03.333Z,96442
2015-05-17T02:28:21.770Z,96451
2015-05-17T02:28:40.302Z,96445
2015-05-17T02:28:58.836Z,96439
2015-05-17T02:29:17.227Z,96448
2015-05-17T02:29:35.820Z,96442
2015-05-17T02:29:54.336Z,96442
2015-05-17T02:30:12.775Z,96448
2015-05-17T02:30:31.260Z,96439
2015-05-17T02:30:49.963Z,96442
2015-05-17T02:31:08.482Z,96453
2015-05-17T02:31:26.982Z,96442
2015-05-17T02:31:45.575Z,96442
2015-05-17T02:32:04.107Z,96442
2015-05-17T02:32:22.734Z,96448
2015-05-17T02:32:41.124Z,96453
2015-05-17T02:32:59.859Z,96448
2015-05-17T02:33:18.345Z,96456
2015-05-17T02:33:36.845Z,96450
2015-05-17T02:33:55.314Z,96448
2015-05-17T02:34:13.923Z,96453
2015-05-17T02:34:32.489Z,96442
2015-05-17T02:34:51.067Z,96448
2015-05-17T02:35:09.567Z,96448
2015-05-17T02:35:28.148Z,96445
2015-05-17T02:35:46.773Z,96448
2015-05-17T02:36:05.195Z,96445
2015-05-17T02:36:23.759Z,96450
2015-05-17T02:36:42.415Z,96450
2015-05-17T02:37:00.822Z,96445
2015-05-17T02:37:19.415Z,96450
2015-05-17T02:37:38.012Z,96448
2015-05-17T02:37:56.497Z,96445
2015-05-17T02:38:15.075Z,96456
2015-05-17T02:38:33.481Z,96451
2015-05-17T02:38:52.014Z,96442
2015-05-17T02:39:10.592Z,96445
2015-05-17T02:39:29.108Z,96445
2015-05-17T02:39:47.736Z,96453
2015-05-17T02:40:06.189Z,96445
2015-05-17T02:40:24.705Z,96451
2015-05-17T02:40:43.377Z,96451
2015-05-17T02:41:02.050Z,96448
2015-05-17T02:41:20.550Z,96451
2015-05-17T02:41:38.957Z,96456
2015-05-17T02:41:57.537Z,96454
2015-05-17T02:42:16.302Z,96454
2015-05-17T02:42:34.943Z,96442
2015-05-17T02:42:53.634Z,96448
2015-05-17T02:43:12.196Z,96448
2015-05-17T02:43:30.790Z,96454
2015-05-17T02:43:49.430Z,96457
2015-05-17T02:44:08.121Z,96451
2015-05-17T02:44:26.730Z,96451
2015-05-17T02:44:45.324Z,96451
2015-05-17T02:45:03.824Z,96454
2015-05-17T02:45:22.435Z,96454
2015-05-17T02:45:40.826Z,96451
2015-05-17T02:45:59.326Z,96460
2015-05-17T02:46:17.813Z,96449
2015-05-17T02:46:36.267Z,96460
2015-05-17T02:46:54.688Z,96452
2015-05-17T02:47:13.142Z,96446
2015-05-17T02:47:31.659Z,96457
2015-05-17T02:47:50.394Z,96457
2015-05-17T02:48:08.925Z,96455
2015-05-17T02:48:27.334Z,96454
2015-05-17T02:48:45.740Z,96449
2015-05-17T02:49:04.475Z,96454
2015-05-17T02:49:23.068Z,96454
2015-05-17T02:49:41.586Z,96460
2015-05-17T02:50:00.086Z,96452
2015-05-17T02:50:18.649Z,96451
2015-05-17T02:50:37.307Z,96451
2015-05-17T02:50:55.869Z,96454
2015-05-17T02:51:14.541Z,96449
2015-05-17T02:51:32.997Z,96454
2015-05-17T02:51:51.404Z,96454
2015-05-17T02:52:09.904Z,96449
2015-05-17T02:52:28.825Z,96451
2015-05-17T02:52:47.343Z,96457
2015-05-17T02:53:05.968Z,96454
2015-05-17T02:53:24.343Z,96454
2015-05-17T02:53:42.968Z,96460
2015-05-17T02:54:01.659Z,96449
2015-05-17T02:54:20.096Z,96457
2015-05-17T02:54:38.862Z,96454
2015-05-17T02:54:57.287Z,96460
2015-05-17T02:55:16.037Z,96451
2015-05-17T02:55:34.505Z,96454
2015-05-17T02:55:52.880Z,96451
2015-05-17T02:56:11.445Z,96460
2015-05-17T02:56:29.914Z,96460
2015-05-17T02:56:48.460Z,96460
2015-05-17T02:57:06.994Z,96457
2015-05-17T02:57:25.400Z,96457
2015-05-17T02:57:44.072Z,96454
2015-05-17T02:58:02.525Z,96452
2015-05-17T02:58:21.028Z,96466
2015-05-17T02:58:39.528Z,96460
2015-05-17T02:59:19.531Z,96455
2015-05-17T02:59:38.047Z,96457
2015-05-17T02:59:56.672Z,96460
2015-05-17T03:00:15.078Z,96460
2015-05-17T03:00:33.642Z,96460
2015-05-17T03:00:52.220Z,96457
2015-05-17T03:01:10.783Z,96446
2015-05-17T03:01:29.489Z,96466
2015-05-17T03:01:47.958Z,96463
2015-05-17T03:02:06.708Z,96460
2015-05-17T03:02:25.241Z,96460
2015-05-17T03:02:44.085Z,96466
2015-05-17T03:03:02.538Z,96454
2015-05-17T03:03:21.054Z,96454
2015-05-17T03:03:39.603Z,96454
2015-05-17T03:03:58.010Z,96466
2015-05-17T03:04:16.478Z,96454
2015-05-17T03:04:35.088Z,96463
2015-05-17T03:04:53.480Z,96457
2015-05-17T03:05:12.059Z,96460
2015-05-17T03:05:30.480Z,96454
2015-05-17T03:05:48.998Z,96457
2015-05-17T03:06:07.561Z,96466
2015-05-17T03:06:26.061Z,96463
2015-05-17T03:06:44.482Z,96460
2015-05-17T03:07:02.923Z,96472
2015-05-17T03:07:21.423Z,96469
2015-05-17T03:07:40.017Z,96457
2015-05-17T03:07:58.895Z,96457
2015-05-17T03:08:17.692Z,96463
2015-05-17T03:08:36.207Z,96466
2015-05-17T03:08:54.238Z,96463
2015-05-17T03:09:12.694Z,96466
2015-05-17T03:09:31.365Z,96463
2015-05-17T03:09:49.803Z,96460
2015-05-17T03:10:08.430Z,96469
2015-05-17T03:10:27.055Z,96460
2015-05-17T03:10:45.649Z,96469
2015-05-17T03:11:04.088Z,96463
2015-05-17T03:11:22.604Z,96466
2015-05-17T03:11:41.026Z,96469
2015-05-17T03:11:59.713Z,96466
2015-05-17T03:12:18.202Z,96469
2015-05-17T03:12:36.702Z,96472
2015-05-17T03:12:55.342Z,96475
2015-05-17T03:13:13.827Z,96475
2015-05-17T03:13:32.360Z,96475
2015-05-17T03:13:50.954Z,96472
2015-05-17T03:14:09.547Z,96472
2015-05-17T03:14:28.050Z,96472
2015-05-17T03:14:46.488Z,96472
2015-05-17T03:15:05.050Z,96472
2015-05-17T03:15:23.472Z,96469
2015-05-17T03:15:42.005Z,96472
2015-05-17T03:16:00.490Z,96466
2015-05-17T03:16:19.084Z,96478
2015-05-17T03:16:37.852Z,96463
2015-05-17T03:16:56.415Z,96475
2015-05-17T03:17:14.821Z,96469
2015-05-17T03:17:33.383Z,96463
2015-05-17T03:17:51.932Z,96469
2015-05-17T03:18:10.807Z,96478
2015-05-17T03:18:29.245Z,96475
2015-05-17T03:18:47.670Z,96469
2015-05-17T03:19:06.357Z,96478
2015-05-17T03:19:24.779Z,96472
2015-05-17T03:19:43.467Z,96466
2015-05-17T03:20:01.937Z,96466
2015-05-17T03:20:20.422Z,96472
2015-05-17T03:20:38.984Z,96466
2015-05-17T03:20:57.362Z,96466
2015-05-17T03:21:15.347Z,96478
2015-05-17T03:21:33.768Z,96472
2015-05-17T03:21:52.300Z,96466
2015-05-17T03:22:10.832Z,96466
2015-05-17T03:22:29.504Z,96472
2015-05-17T03:22:48.160Z,96472
2015-05-17T03:23:06.680Z,96464
2015-05-17T03:23:25.352Z,96464
2015-05-17T03:23:43.867Z,96461
2015-05-17T03:24:02.447Z,96467
2015-05-17T03:24:21.150Z,96472
2015-05-17T03:24:39.900Z,96464
2015-05-17T03:24:58.494Z,96464
2015-05-17T03:25:17.012Z,96475
2015-05-17T03:25:35.481Z,96464
2015-05-17T03:25:54.027Z,96461
2015-05-17T03:26:12.421Z,96472
2015-05-17T03:26:30.984Z,96461
2015-05-17T03:26:49.640Z,96461
2015-05-17T03:27:08.171Z,96473
2015-05-17T03:27:26.829Z,96464
2015-05-17T03:27:45.845Z,96467
2015-05-17T03:28:04.220Z,96467
2015-05-17T03:28:22.706Z,96470
2015-05-17T03:28:41.253Z,96473
2015-05-17T03:28:59.722Z,96461
2015-05-17T03:29:18.316Z,96470
2015-05-17T03:29:36.912Z,96467
2015-05-17T03:29:55.506Z,96473
2015-05-17T03:30:14.100Z,96473
2015-05-17T03:30:32.602Z,96464
2015-05-17T03:30:51.321Z,96467
2015-05-17T03:31:10.008Z,96473
2015-05-17T03:31:28.449Z,96467
2015-05-17T03:31:47.058Z,96483
2015-05-17T03:32:05.449Z,96486
2015-05-17T03:32:24.105Z,96470
2015-05-17T03:32:42.561Z,96479
2015-05-17T03:33:01.092Z,96473
2015-05-17T03:33:19.545Z,96483
2015-05-17T03:33:38.170Z,96479
2015-05-17T03:33:56.610Z,96473
2015-05-17T03:34:14.704Z,96473
2015-05-17T03:34:32.579Z,96470
2015-05-17T03:34:51.096Z,96484
2015-05-17T03:35:09.956Z,96470
2015-05-17T03:35:28.893Z,96476
2015-05-17T03:35:47.631Z,96467
2015-05-17T03:36:06.084Z,96473
2015-05-17T03:36:24.709Z,96473
2015-05-17T03:36:42.506Z,96473
2015-05-17T03:37:00.992Z,96479
2015-05-17T03:37:19.398Z,96473
2015-05-17T03:37:37.804Z,96467
2015-05-17T03:37:56.211Z,96479
2015-05-17T03:38:14.619Z,96476
2015-05-17T03:38:33.213Z,96471
2015-05-17T03:38:51.760Z,96468
2015-05-17T03:39:10.388Z,96468
2015-05-17T03:39:28.966Z,96474
2015-05-17T03:39:47.606Z,96479
2015-05-17T03:40:06.044Z,96474
2015-05-17T03:40:24.391Z,96477
2015-05-17T03:40:42.672Z,96474
2015-05-17T03:41:00.719Z,96474
2015-05-17T03:41:19.159Z,96477
2015-05-17T03:41:37.847Z,96480
2015-05-17T03:41:56.503Z,96474
2015-05-17T03:42:15.099Z,96474
2015-05-17T03:42:33.521Z,96485
2015-05-17T03:42:52.083Z,96485
2015-05-17T03:43:10.646Z,96480
2015-05-17T03:43:29.101Z,96474
2015-05-17T03:43:47.569Z,96480
2015-05-17T03:44:06.023Z,96477
2015-05-17T03:44:24.460Z,96480
2015-05-17T03:44:43.026Z,96477
2015-05-17T03:45:01.494Z,96471
2015-05-17T03:45:20.260Z,96471
2015-05-17T03:45:38.654Z,96474
2015-05-17T03:45:57.279Z,96485
2015-05-17T03:46:15.950Z,96480
2015-05-17T03:46:34.484Z,96480
2015-05-17T03:46:52.921Z,96485
2015-05-17T03:47:11.343Z,96469
2015-05-17T03:47:30.093Z,96480
2015-05-17T03:47:48.534Z,96488
2015-05-17T03:48:06.940Z,96468
2015-05-17T03:48:25.409Z,96477
2015-05-17T03:48:43.877Z,96488
2015-05-17T03:49:02.723Z,96477
2015-05-17T03:49:21.145Z,96485
2015-05-17T03:49:39.536Z,96475
2015-05-17T03:49:58.209Z,96480
2015-05-17T03:50:16.819Z,96472
2015-05-17T03:50:35.272Z,96475
2015-05-17T03:50:53.756Z,96469
2015-05-17T03:51:12.290Z,96477
2015-05-17T03:51:30.915Z,96472
2015-05-17T03:51:49.633Z,96474
2015-05-17T03:52:08.169Z,96472
2015-05-17T03:52:26.715Z,96469
2015-05-17T03:52:45.309Z,96475
2015-05-17T03:53:04.124Z,96475
2015-05-17T03:53:22.686Z,96477
2015-05-17T03:53:41.202Z,96469
2015-05-17T03:53:59.764Z,96477
2015-05-17T03:54:18.251Z,96466
2015-05-17T03:54:36.673Z,96474
2015-05-17T03:54:55.110Z,96474
2015-05-17T03:55:13.501Z,96469
2015-05-17T03:55:31.926Z,96471
2015-05-17T03:55:50.347Z,96469
2015-05-17T03:56:08.832Z,96474
2015-05-17T03:56:27.256Z,96477
2015-05-17T03:56:45.818Z,96480
2015-05-17T03:57:04.459Z,96477
2015-05-17T03:57:22.756Z,96471
2015-05-17T03:57:41.509Z,96469
2015-05-17T03:58:00.040Z,96469
2015-05-17T03:58:18.509Z,96469
2015-05-17T03:58:36.964Z,96466